Port Lavaca, TX

6:10 AM CST on December 22, 2014 (GMT -0600)
J.S. Farms - 7 miles west of Port Lavaca | Change Station
CLOSE
Current Station
Personal Weather Station
Location: Port Lavaca, TX
Elevation: 43 ft
Nearby Weather Stations
Active Advisory: Dense Fog Advisory

Elev 43 ft 28.60 °N, 96.73 °W | Updated 5 minutes ago

Fog
Fog
60.1 °F
Feels Like 60.1 °F
N
5.0
Wind Variable Wind from SSW
Gusts 8.0 mph

Today
High -- | Low -- °F
--% Chance of Precip.
Yesterday
High -- | Low -- °F
Precip. -- in
7:15 AM 5:35 PM
New Moon, 0% visible
Pressure 29.78 in
Visibility 0.2 miles
Clouds Overcast 200 ft
Dew Point 60 °F
Humidity 98%
Rainfall 0.00 in
Snow Depth Not available.
UV 0 out of 12
Pollen 7.20 out of 12
Air Quality Not available.
Flu Activity Not available.
METAR KPKV 221155Z AUTO 00000KT 1/4SM FG OVC002 15/15 A2978 RMK AO2 T01450145 10156 20140

More Conditions Fewer Conditions

Pressure 29.78 in
Visibility 0.2 miles
Clouds Overcast 200 ft
Dew Point 60 °F
Humidity 98%
Rainfall 0.00 in
Snow Depth Not available.
UV 0 out of 12
Pollen 7.20 out of 12
Air Quality Not available.
Flu Activity Not available.
METAR KPKV 221155Z AUTO 00000KT 1/4SM FG OVC002 15/15 A2978 RMK AO2 T01450145 10156 20140

More Conditions Fewer Conditions

Nowcast | as of 5:17 am CST on December 22, 2014

dense fog advisory for the bays and waterways and coastal Bend until 8 am this morning... Through 8 am...fog will continue over the coastal Bend...Victoria Crossroads...and bays and waterways. Visibilities will be reduced to less than a mile in some areas...with areas of dense fog possible as well. If driving through dense fog...do not burn your high beams!

×

10-Day Weather Forecast

Almanac

Astronomy

Dec. 22, 2014 Rise Set
Actual Time
Civil Twilight
Nautical Twilight
Astronomical Twilight
Moon
Length of Visible Light
Length of Day
Tomorrow will be .
, % of the Moon is Illuminated

Today's Extremes

State Highs State Lows

Community

WunderPhotos

Upload Photos

1,779,593 photos uploaded!

WunderBlogs® & News

Nearby

Air Quality

  Air Quality AQ Index Pollutant
Not available.

Snow Depth

Station Depth Elevation

Earthquake Activity

City Distance Mag. Time & Date
Minimum magnitude displayed is 2.5.

Coastal Water Temperatures

Place Temperature

Nearby Weather Stations